createdAt,value
2017-08-17T00:01:11.396Z,-85
2017-08-17T00:03:47.665Z,-86
2017-08-17T00:06:17.558Z,-86
2017-08-17T00:08:46.908Z,-86
2017-08-17T00:11:16.625Z,-85
2017-08-17T00:13:45.582Z,-86
2017-08-17T00:16:14.542Z,-85
2017-08-17T00:18:43.664Z,-85
2017-08-17T00:21:12.628Z,-86
2017-08-17T00:23:41.590Z,-86
2017-08-17T00:26:10.541Z,-85
2017-08-17T00:28:40.497Z,-86
2017-08-17T00:31:09.465Z,-86
2017-08-17T00:33:38.425Z,-86
2017-08-17T00:36:07.379Z,-86
2017-08-17T00:38:36.387Z,-85
2017-08-17T00:41:05.380Z,-86
2017-08-17T00:43:34.537Z,-86
2017-08-17T00:46:04.254Z,-86
2017-08-17T00:48:33.363Z,-86
2017-08-17T00:51:14.736Z,-86
2017-08-17T00:53:43.980Z,-86
2017-08-17T00:56:13.007Z,-86
2017-08-17T00:58:42.081Z,-86
2017-08-17T01:01:12.235Z,-86
2017-08-17T01:03:41.991Z,-86
2017-08-17T01:06:10.950Z,-86
2017-08-17T01:08:40.800Z,-86
2017-08-17T01:11:09.772Z,-85
2017-08-17T01:13:38.727Z,-86
2017-08-17T01:16:07.706Z,-86
2017-08-17T01:18:38.332Z,-85
2017-08-17T01:21:07.295Z,-85
2017-08-17T01:23:36.255Z,-85
2017-08-17T01:26:05.236Z,-85
2017-08-17T01:28:34.188Z,-85
2017-08-17T01:31:03.131Z,-86
2017-08-17T01:33:32.105Z,-86
2017-08-17T01:36:01.825Z,-86
2017-08-17T01:38:30.788Z,-86
2017-08-17T01:41:05.741Z,-86
2017-08-17T01:43:35.466Z,-86
2017-08-17T01:46:04.427Z,-85
2017-08-17T01:48:34.142Z,-86
2017-08-17T01:51:03.106Z,-86
2017-08-17T01:53:32.688Z,-85
2017-08-17T01:56:01.655Z,-85
2017-08-17T01:58:30.609Z,-86
2017-08-17T02:00:59.575Z,-86
2017-08-17T02:03:28.531Z,-86
2017-08-17T02:05:57.479Z,-86
2017-08-17T02:08:26.436Z,-86
2017-08-17T02:11:08.127Z,-86
2017-08-17T02:13:37.092Z,-86
2017-08-17T02:16:06.052Z,-85
2017-08-17T02:18:35.214Z,-85
2017-08-17T02:21:04.185Z,-86
2017-08-17T02:23:33.141Z,-86
2017-08-17T02:26:02.091Z,-85
2017-08-17T02:28:31.040Z,-86
2017-08-17T02:31:00.762Z,-86
2017-08-17T02:33:29.714Z,-86
2017-08-17T02:35:58.694Z,-86
2017-08-17T02:38:27.643Z,-86
2017-08-17T02:40:56.598Z,-86
2017-08-17T02:43:25.560Z,-85
2017-08-17T02:45:54.517Z,-86
2017-08-17T02:48:23.492Z,-86
2017-08-17T02:50:53.213Z,-86
2017-08-17T02:53:22.164Z,-86
2017-08-17T02:55:51.119Z,-86
2017-08-17T02:58:20.067Z,-85
2017-08-17T03:00:49.023Z,-85
2017-08-17T03:03:17.972Z,-85
2017-08-17T03:05:46.919Z,-85
2017-08-17T03:08:15.990Z,-85
2017-08-17T03:10:44.946Z,-85
2017-08-17T03:13:13.903Z,-83
2017-08-17T03:15:42.859Z,-85
2017-08-17T03:18:11.818Z,-85
2017-08-17T03:20:40.772Z,-85
2017-08-17T03:23:09.727Z,-84
2017-08-17T03:25:38.691Z,-85
2017-08-17T03:28:07.643Z,-85
2017-08-17T03:30:36.766Z,-85
2017-08-17T03:33:05.713Z,-85
2017-08-17T03:35:34.687Z,-85
2017-08-17T03:38:03.635Z,-85
2017-08-17T03:40:33.355Z,-85
2017-08-17T03:43:03.074Z,-85
2017-08-17T03:45:32.023Z,-85
2017-08-17T03:48:01.008Z,-85
2017-08-17T03:50:29.935Z,-85
2017-08-17T03:53:24.642Z,-85
2017-08-17T03:55:53.594Z,-85
2017-08-17T03:58:22.576Z,-84
2017-08-17T04:00:51.534Z,-85
2017-08-17T04:03:20.499Z,-85
2017-08-17T04:05:50.227Z,-85
2017-08-17T04:08:19.175Z,-85
2017-08-17T04:10:48.139Z,-85
2017-08-17T04:13:17.096Z,-85
2017-08-17T04:15:46.062Z,-85
2017-08-17T04:18:15.013Z,-84
2017-08-17T04:20:43.964Z,-84
2017-08-17T04:23:12.914Z,-85
2017-08-17T04:25:41.881Z,-85
2017-08-17T04:28:10.827Z,-85
2017-08-17T04:30:40.555Z,-85
2017-08-17T04:33:23.543Z,-85
2017-08-17T04:35:52.500Z,-85
2017-08-17T04:38:21.467Z,-85
2017-08-17T04:40:50.427Z,-85
2017-08-17T04:43:19.379Z,-85
2017-08-17T04:45:48.337Z,-84
2017-08-17T04:48:17.287Z,-85
2017-08-17T04:50:46.247Z,-85
2017-08-17T04:53:15.195Z,-85
2017-08-17T04:55:44.151Z,-85
2017-08-17T04:58:36.533Z,-85
2017-08-17T05:01:06.256Z,-85
2017-08-17T05:03:35.215Z,-85
2017-08-17T05:06:04.168Z,-85
2017-08-17T05:08:33.158Z,-85
2017-08-17T05:11:02.103Z,-85
2017-08-17T05:13:31.072Z,-85
2017-08-17T05:16:00.031Z,-85
2017-08-17T05:18:28.988Z,-85
2017-08-17T05:20:58.719Z,-84
2017-08-17T05:23:27.689Z,-85
2017-08-17T05:26:04.562Z,-85
2017-08-17T05:28:34.280Z,-85
2017-08-17T05:31:03.240Z,-85
2017-08-17T05:33:32.191Z,-85
2017-08-17T05:36:01.144Z,-86
2017-08-17T05:38:30.875Z,-85
2017-08-17T05:40:59.824Z,-84
2017-08-17T05:43:28.783Z,-84
2017-08-17T05:45:57.736Z,-84
2017-08-17T05:48:27.451Z,-84
2017-08-17T05:50:57.181Z,-84
2017-08-17T05:53:26.127Z,-85
2017-08-17T05:55:55.079Z,-84
2017-08-17T05:58:24.044Z,-84
2017-08-17T06:00:53.000Z,-84
2017-08-17T06:03:21.973Z,-85
2017-08-17T06:05:50.933Z,-85
2017-08-17T06:08:19.900Z,-84
2017-08-17T06:10:49.629Z,-84
2017-08-17T06:13:18.591Z,-84
2017-08-17T06:15:47.571Z,-84
2017-08-17T06:18:16.524Z,-84
2017-08-17T06:20:45.512Z,-84
2017-08-17T06:23:14.464Z,-84
2017-08-17T06:25:44.194Z,-84
2017-08-17T06:28:13.155Z,-84
2017-08-17T06:30:42.180Z,-85
2017-08-17T06:33:11.192Z,-85
2017-08-17T06:35:40.155Z,-85
2017-08-17T06:38:09.885Z,-87
2017-08-17T06:40:39.192Z,-85
2017-08-17T06:43:08.165Z,-87
2017-08-17T06:45:37.115Z,-85
2017-08-17T06:48:06.072Z,-85
2017-08-17T06:50:35.047Z,-85
2017-08-17T06:53:04.008Z,-85
2017-08-17T06:55:33.015Z,-88
2017-08-17T06:58:06.640Z,-87
2017-08-17T07:00:35.627Z,-88
2017-08-17T07:03:04.583Z,-86
2017-08-17T07:05:34.308Z,-85
2017-08-17T07:08:04.043Z,-85
2017-08-17T07:10:33.692Z,-86
2017-08-17T07:13:02.705Z,-86
2017-08-17T07:15:31.845Z,-86
2017-08-17T07:18:00.908Z,-87
2017-08-17T07:20:29.931Z,-86
2017-08-17T07:22:58.880Z,-87
2017-08-17T07:25:27.844Z,-86
2017-08-17T07:27:56.801Z,-86
2017-08-17T07:30:25.772Z,-85
2017-08-17T07:32:54.799Z,-87
2017-08-17T07:35:23.780Z,-87
2017-08-17T07:37:52.941Z,-87
2017-08-17T07:40:21.952Z,-86
2017-08-17T07:42:50.979Z,-87
2017-08-17T07:45:19.939Z,-86
2017-08-17T07:47:49.034Z,-88
2017-08-17T07:50:17.964Z,-87
2017-08-17T07:52:46.922Z,-87
2017-08-17T07:55:15.960Z,-87
2017-08-17T07:57:45.828Z,-86
2017-08-17T08:00:14.760Z,-87
2017-08-17T08:02:43.930Z,-87
2017-08-17T08:05:12.907Z,-87
2017-08-17T08:07:41.915Z,-87
2017-08-17T08:10:10.907Z,-87
2017-08-17T08:12:39.962Z,-86
2017-08-17T08:15:08.917Z,-85
2017-08-17T08:17:38.054Z,-86
2017-08-17T08:20:06.999Z,-87
2017-08-17T08:22:35.947Z,-87
2017-08-17T08:25:05.676Z,-87
2017-08-17T08:27:34.800Z,-87
2017-08-17T08:30:03.819Z,-87
2017-08-17T08:32:33.560Z,-87
2017-08-17T08:35:03.405Z,-87
2017-08-17T08:37:32.633Z,-87
2017-08-17T08:40:01.764Z,-87
2017-08-17T08:42:33.090Z,-87
2017-08-17T08:45:03.905Z,-87
2017-08-17T08:47:32.843Z,-86
2017-08-17T08:50:04.518Z,-87
2017-08-17T08:52:33.467Z,-86
2017-08-17T08:55:02.423Z,-86
2017-08-17T08:57:31.381Z,-86
2017-08-17T09:00:00.343Z,-86
2017-08-17T09:02:29.302Z,-86
2017-08-17T09:04:58.251Z,-86
2017-08-17T09:07:27.987Z,-86
2017-08-17T09:09:57.975Z,-86
2017-08-17T09:12:27.995Z,-85
2017-08-17T09:14:58.641Z,-86
2017-08-17T09:17:27.591Z,-84
2017-08-17T09:19:57.343Z,-85
2017-08-17T09:22:26.295Z,-85
2017-08-17T09:24:55.275Z,-86
2017-08-17T09:27:24.318Z,-85
2017-08-17T09:29:53.272Z,-83
2017-08-17T09:32:22.233Z,-83
2017-08-17T09:34:51.189Z,-83
2017-08-17T09:37:20.185Z,-83
2017-08-17T09:39:49.127Z,-83
2017-08-17T09:42:18.231Z,-83
2017-08-17T09:44:47.477Z,-83
2017-08-17T09:47:16.515Z,-84
2017-08-17T09:49:45.740Z,-83
2017-08-17T09:52:14.856Z,-83
2017-08-17T09:54:43.824Z,-83
2017-08-17T09:57:13.846Z,-83
2017-08-17T09:59:42.802Z,-83
2017-08-17T10:02:11.759Z,-83
2017-08-17T10:04:40.715Z,-83
2017-08-17T10:07:09.672Z,-84
2017-08-17T10:09:38.628Z,-84
2017-08-17T10:12:08.096Z,-85
2017-08-17T10:14:37.052Z,-84
2017-08-17T10:17:06.004Z,-84
2017-08-17T10:19:35.762Z,-84
2017-08-17T10:22:04.715Z,-84
2017-08-17T10:24:33.666Z,-84
2017-08-17T10:27:02.640Z,-84
2017-08-17T10:29:31.773Z,-84
2017-08-17T10:32:00.751Z,-84
2017-08-17T10:34:29.704Z,-84
2017-08-17T10:36:58.666Z,-84
2017-08-17T10:39:27.613Z,-85
2017-08-17T10:41:56.563Z,-84
2017-08-17T10:44:25.511Z,-84
2017-08-17T10:46:55.241Z,-84
2017-08-17T10:49:24.961Z,-84
2017-08-17T10:51:53.905Z,-84
2017-08-17T10:54:22.860Z,-84
2017-08-17T10:56:51.815Z,-84
2017-08-17T10:59:20.767Z,-83
2017-08-17T11:01:49.721Z,-84
2017-08-17T11:04:18.699Z,-84
2017-08-17T11:06:47.652Z,-84
2017-08-17T11:09:16.599Z,-85
2017-08-17T11:11:45.561Z,-84
2017-08-17T11:14:15.279Z,-84
2017-08-17T11:16:45.000Z,-85
2017-08-17T11:19:13.951Z,-85
2017-08-17T11:21:42.933Z,-85
2017-08-17T11:24:11.908Z,-85
2017-08-17T11:26:40.883Z,-87
2017-08-17T11:29:10.064Z,-86
2017-08-17T11:31:39.012Z,-84
2017-08-17T11:34:07.972Z,-84
2017-08-17T11:36:36.927Z,-84
2017-08-17T11:39:06.657Z,-86
2017-08-17T11:41:35.607Z,-86
2017-08-17T11:44:04.563Z,-86
2017-08-17T11:46:33.568Z,-82
2017-08-17T11:49:02.594Z,-83
2017-08-17T11:51:31.556Z,-84
2017-08-17T11:54:00.512Z,-83
2017-08-17T11:56:29.482Z,-84
2017-08-17T11:58:58.443Z,-83
2017-08-17T12:01:27.396Z,-84
2017-08-17T12:03:56.352Z,-83
2017-08-17T12:06:25.307Z,-83
2017-08-17T12:08:54.261Z,-84
2017-08-17T12:11:23.211Z,-84
2017-08-17T12:13:52.174Z,-84
2017-08-17T12:16:21.338Z,-86
2017-08-17T12:18:50.291Z,-87
2017-08-17T12:21:19.271Z,-86
2017-08-17T12:23:48.227Z,-84
2017-08-17T12:26:17.174Z,-84
2017-08-17T12:28:46.130Z,-84
2017-08-17T12:31:15.111Z,-84
2017-08-17T12:33:44.067Z,-84
2017-08-17T12:36:13.019Z,-84
2017-08-17T12:38:41.978Z,-84
2017-08-17T12:41:10.932Z,-84
2017-08-17T12:43:40.660Z,-84
2017-08-17T12:46:10.375Z,-84
2017-08-17T12:48:39.333Z,-85
2017-08-17T12:51:08.285Z,-83
2017-08-17T12:53:37.230Z,-81
2017-08-17T12:56:06.956Z,-85
2017-08-17T12:58:35.902Z,-83
2017-08-17T13:01:04.866Z,-83
2017-08-17T13:03:33.810Z,-83
2017-08-17T13:06:03.561Z,-84
2017-08-17T13:08:32.517Z,-84
2017-08-17T13:11:02.251Z,-84
2017-08-17T13:13:31.962Z,-84
2017-08-17T13:16:00.914Z,-83
2017-08-17T13:18:29.891Z,-84
2017-08-17T13:20:58.853Z,-84
2017-08-17T13:23:27.800Z,-84
2017-08-17T13:25:57.530Z,-84
2017-08-17T13:28:26.499Z,-84
2017-08-17T13:30:56.227Z,-85
2017-08-17T13:33:25.179Z,-84
2017-08-17T13:35:55.173Z,-87
2017-08-17T13:38:24.139Z,-86
2017-08-17T13:40:53.165Z,-85
2017-08-17T13:43:22.124Z,-84
2017-08-17T13:45:52.262Z,-84
2017-08-17T13:48:21.227Z,-84
2017-08-17T13:50:50.176Z,-84
2017-08-17T13:53:19.127Z,-84
2017-08-17T13:55:48.084Z,-84
2017-08-17T13:58:17.026Z,-85
2017-08-17T14:00:45.998Z,-84
2017-08-17T14:03:14.952Z,-85
2017-08-17T14:05:44.112Z,-84
2017-08-17T14:08:13.273Z,-84
2017-08-17T14:10:42.395Z,-84
2017-08-17T14:13:11.526Z,-84
2017-08-17T14:15:40.488Z,-86
2017-08-17T14:18:15.505Z,-84
2017-08-17T14:20:44.560Z,-87
2017-08-17T14:23:13.586Z,-86
2017-08-17T14:25:42.546Z,-85
2017-08-17T14:28:11.495Z,-83
2017-08-17T14:30:40.448Z,-84
2017-08-17T14:33:09.404Z,-84
2017-08-17T14:35:38.388Z,-85
2017-08-17T14:38:07.369Z,-84
2017-08-17T14:40:36.314Z,-83
2017-08-17T14:43:05.295Z,-83
2017-08-17T14:45:34.346Z,-84
2017-08-17T14:48:03.355Z,-83
2017-08-17T14:50:32.377Z,-83
2017-08-17T14:53:01.459Z,-83
2017-08-17T14:55:30.424Z,-84
2017-08-17T14:57:59.370Z,-82
2017-08-17T15:00:28.331Z,-83
2017-08-17T15:02:57.275Z,-82
2017-08-17T15:05:32.014Z,-83
2017-08-17T15:08:01.127Z,-82
2017-08-17T15:10:30.375Z,-82
2017-08-17T15:12:59.442Z,-82
2017-08-17T15:15:28.413Z,-82
2017-08-17T15:17:57.383Z,-88
2017-08-17T15:20:26.349Z,-82
2017-08-17T15:22:55.291Z,-84
2017-08-17T15:25:24.247Z,-85
2017-08-17T15:27:55.462Z,-85
2017-08-17T15:30:24.436Z,-86
2017-08-17T15:32:53.388Z,-84
2017-08-17T15:35:22.407Z,-82
2017-08-17T15:37:51.477Z,-84
2017-08-17T15:40:23.298Z,-88
2017-08-17T15:42:52.605Z,-84
2017-08-17T15:45:21.570Z,-85
2017-08-17T15:47:52.448Z,-86
2017-08-17T15:50:21.440Z,-84
2017-08-17T15:52:50.400Z,-86
2017-08-17T15:55:19.414Z,-88
2017-08-17T15:57:48.407Z,-87
2017-08-17T16:00:17.488Z,-89
2017-08-17T16:02:47.504Z,-87
2017-08-17T16:05:16.463Z,-88
2017-08-17T16:07:45.447Z,-87
2017-08-17T16:10:14.483Z,-87
2017-08-17T16:12:43.419Z,-87
2017-08-17T16:48:26.946Z,-87
2017-08-17T16:50:55.891Z,-87
2017-08-17T16:53:24.841Z,-86
2017-08-17T16:55:53.819Z,-86
2017-08-17T16:58:22.781Z,-88
2017-08-17T17:00:51.739Z,-87
2017-08-17T17:03:20.699Z,-89
2017-08-17T17:05:49.690Z,-87
2017-08-17T17:08:18.635Z,-88
2017-08-17T17:10:47.592Z,-87
2017-08-17T17:13:16.565Z,-88
2017-08-17T17:15:45.535Z,-88
2017-08-17T17:18:14.487Z,-90
2017-08-17T17:20:43.456Z,-88
2017-08-17T17:23:12.412Z,-91
2017-08-17T17:25:41.363Z,-89
2017-08-17T17:28:15.239Z,-88
2017-08-17T17:30:44.266Z,-88
2017-08-17T17:33:13.219Z,-90
2017-08-17T17:35:42.198Z,-87
2017-08-17T17:38:11.175Z,-88
2017-08-17T17:40:40.139Z,-88
2017-08-17T17:43:09.115Z,-88
2017-08-17T17:45:38.069Z,-88
2017-08-17T17:48:07.103Z,-92
2017-08-17T17:50:36.111Z,-91
2017-08-17T17:53:05.094Z,-92
2017-08-17T17:55:34.077Z,-87
2017-08-17T17:58:03.073Z,-88
2017-08-17T18:00:32.112Z,-89
2017-08-17T18:03:01.148Z,-88
2017-08-17T18:05:30.322Z,-89
2017-08-17T18:07:59.290Z,-88
2017-08-17T18:10:28.247Z,-89
2017-08-17T18:12:57.203Z,-88
2017-08-17T18:15:26.223Z,-87
2017-08-17T18:17:55.190Z,-88
2017-08-17T18:20:24.159Z,-90
2017-08-17T18:22:53.142Z,-88
2017-08-17T18:25:22.124Z,-88
2017-08-17T18:27:51.098Z,-87
2017-08-17T18:30:20.051Z,-87
2017-08-17T18:32:49.059Z,-87
2017-08-17T18:35:18.010Z,-88
2017-08-17T18:37:46.981Z,-89
2017-08-17T18:40:16.143Z,-89
2017-08-17T18:42:50.479Z,-88
2017-08-17T18:45:19.476Z,-86
2017-08-17T18:47:50.408Z,-87
2017-08-17T18:50:19.378Z,-88
2017-08-17T18:52:48.347Z,-86
2017-08-17T18:55:17.375Z,-87
2017-08-17T18:57:46.344Z,-88
2017-08-17T19:00:15.308Z,-87
2017-08-17T19:02:44.295Z,-86
2017-08-17T19:05:13.259Z,-87
2017-08-17T19:07:42.212Z,-87
2017-08-17T19:10:11.185Z,-85
2017-08-17T19:12:40.152Z,-86
2017-08-17T19:15:09.119Z,-86
2017-08-17T19:17:38.107Z,-86
2017-08-17T19:20:07.096Z,-86
2017-08-17T19:22:36.059Z,-85
2017-08-17T19:25:05.031Z,-86
2017-08-17T19:27:34.896Z,-87
2017-08-17T19:30:03.869Z,-86
2017-08-17T19:32:32.838Z,-87
2017-08-17T19:35:01.803Z,-88
2017-08-17T19:37:32.732Z,-87
2017-08-17T19:40:01.701Z,-86
2017-08-17T19:42:30.661Z,-86
2017-08-17T19:44:59.633Z,-84
2017-08-17T19:47:53.651Z,-85
2017-08-17T19:50:22.620Z,-84
2017-08-17T19:52:51.592Z,-84
2017-08-17T19:55:20.576Z,-84
2017-08-17T19:57:49.547Z,-84
2017-08-17T20:00:20.524Z,-86
2017-08-17T20:02:49.556Z,-85
2017-08-17T20:05:19.475Z,-85
2017-08-17T20:07:48.675Z,-85
2017-08-17T20:10:17.657Z,-86
2017-08-17T20:12:58.177Z,-86
2017-08-17T20:15:35.512Z,-86
2017-08-17T20:18:05.672Z,-86
2017-08-17T20:20:36.220Z,-87
2017-08-17T20:23:08.791Z,-86
2017-08-17T20:25:47.653Z,-87
2017-08-17T20:28:22.396Z,-86
2017-08-17T20:30:52.452Z,-86
2017-08-17T20:33:22.361Z,-87
2017-08-17T20:35:51.981Z,-86
2017-08-17T20:38:21.044Z,-87
2017-08-17T20:40:54.354Z,-85
2017-08-17T20:43:23.316Z,-87
2017-08-17T20:45:52.316Z,-87
2017-08-17T20:48:22.227Z,-87
2017-08-17T20:50:51.215Z,-87
2017-08-17T20:53:20.359Z,-87
2017-08-17T20:55:49.395Z,-87
2017-08-17T20:58:19.727Z,-87
2017-08-17T21:00:53.935Z,-87
2017-08-17T21:03:23.033Z,-87
2017-08-17T21:05:54.030Z,-87
2017-08-17T21:08:23.272Z,-87
2017-08-17T21:10:52.443Z,-87
2017-08-17T21:13:22.826Z,-87
2017-08-17T21:15:51.987Z,-86
2017-08-17T21:18:20.987Z,-85
2017-08-17T21:20:50.026Z,-87
2017-08-17T21:23:19.201Z,-87
2017-08-17T21:25:48.433Z,-87
2017-08-17T21:28:27.896Z,-87
2017-08-17T21:30:57.002Z,-87
2017-08-17T21:33:26.144Z,-86
2017-08-17T21:35:56.392Z,-86
2017-08-17T21:38:25.387Z,-87
2017-08-17T21:40:54.452Z,-86
2017-08-17T21:43:29.324Z,-86
2017-08-17T21:45:59.080Z,-85
2017-08-17T21:48:28.115Z,-85
2017-08-17T21:50:57.669Z,-85
2017-08-17T21:53:26.724Z,-86
2017-08-17T21:55:55.696Z,-86
2017-08-17T21:58:24.651Z,-85
2017-08-17T22:00:53.646Z,-85
2017-08-17T22:03:22.656Z,-86
2017-08-17T22:05:51.716Z,-86
2017-08-17T22:08:20.840Z,-88
2017-08-17T22:10:51.288Z,-87
2017-08-17T22:13:20.259Z,-87
2017-08-17T22:15:49.231Z,-86
2017-08-17T22:18:18.213Z,-86
2017-08-17T22:20:47.208Z,-86
2017-08-17T22:23:16.331Z,-86
2017-08-17T22:25:50.245Z,-86
2017-08-17T22:28:19.328Z,-85
2017-08-17T22:30:48.535Z,-86
2017-08-17T22:33:17.532Z,-86
2017-08-17T22:35:48.804Z,-86
2017-08-17T22:38:17.994Z,-86
2017-08-17T22:40:46.958Z,-86
2017-08-17T22:43:15.916Z,-86
2017-08-17T22:45:44.927Z,-85
2017-08-17T22:48:14.155Z,-86
2017-08-17T22:50:43.284Z,-86
2017-08-17T22:53:12.791Z,-86
2017-08-17T22:55:41.764Z,-86
2017-08-17T22:58:10.744Z,-86
2017-08-17T23:00:39.701Z,-87
2017-08-17T23:03:08.985Z,-86
2017-08-17T23:05:38.077Z,-87
2017-08-17T23:08:07.393Z,-87
2017-08-17T23:10:36.456Z,-86
2017-08-17T23:13:07.347Z,-87
2017-08-17T23:15:36.336Z,-87
2017-08-17T23:18:05.311Z,-87
2017-08-17T23:20:34.319Z,-86
2017-08-17T23:23:03.281Z,-86
2017-08-17T23:25:32.259Z,-87
2017-08-17T23:28:01.268Z,-86
2017-08-17T23:30:30.213Z,-87
2017-08-17T23:33:05.498Z,-86
2017-08-17T23:35:34.453Z,-87
2017-08-17T23:38:09.394Z,-87
2017-08-17T23:40:38.349Z,-86
2017-08-17T23:43:07.327Z,-87
2017-08-17T23:45:36.292Z,-87
2017-08-17T23:48:05.252Z,-86
2017-08-17T23:50:34.215Z,-86
2017-08-17T23:53:20.134Z,-86
2017-08-17T23:55:49.104Z,-85
2017-08-17T23:58:18.071Z,-86
